createdAt,value
2023-05-21T00:00:25.820Z,1013.71
2023-05-21T00:00:53.254Z,1013.71
2023-05-21T00:01:24.334Z,1013.51
2023-05-21T00:01:56.158Z,1013.51
2023-05-21T00:02:26.190Z,1013.71
2023-05-21T00:02:57.897Z,1013.71
2023-05-21T00:03:28.424Z,1013.71
2023-05-21T00:04:00.160Z,1013.71
2023-05-21T00:04:30.944Z,1013.92
2023-05-21T00:05:02.929Z,1013.92
2023-05-21T00:05:33.199Z,1013.61
2023-05-21T00:06:04.317Z,1013.41
2023-05-21T00:06:34.605Z,1013.41
2023-05-21T00:07:06.136Z,1013.71
2023-05-21T00:07:36.151Z,1013.71
2023-05-21T00:08:07.899Z,1013.71
2023-05-21T00:08:38.515Z,1013.71
2023-05-21T00:09:09.879Z,1013.61
2023-05-21T00:09:40.234Z,1013.61
2023-05-21T00:10:12.460Z,1013.51
2023-05-21T00:10:43.191Z,1013.51
2023-05-21T00:11:14.381Z,1013.61
2023-05-21T00:11:44.091Z,1013.61
2023-05-21T00:12:15.928Z,1013.71
2023-05-21T00:12:46.260Z,1013.71
2023-05-21T00:13:17.905Z,1013.41
2023-05-21T00:13:48.211Z,1013.41
2023-05-21T00:14:19.813Z,1013.61
2023-05-21T00:14:50.140Z,1013.61
2023-05-21T00:15:22.942Z,1013.51
2023-05-21T00:15:53.212Z,1013.51
2023-05-21T00:16:24.222Z,1013.82
2023-05-21T00:16:54.210Z,1013.82
2023-05-21T00:17:25.929Z,1013.61
2023-05-21T00:17:56.848Z,1013.61
2023-05-21T00:18:27.880Z,1013.41
2023-05-21T00:18:58.204Z,1013.41
2023-05-21T00:19:29.932Z,1013.51
2023-05-21T00:20:00.299Z,1013.51
2023-05-21T00:20:43.269Z,1013.51
2023-05-21T00:21:21.755Z,1013.51
2023-05-21T00:21:33.869Z,1013.51
2023-05-21T00:22:04.301Z,1013.34
2023-05-21T00:22:36.642Z,1013.34
2023-05-21T00:23:06.115Z,1013.51
2023-05-21T00:23:37.851Z,1013.51
2023-05-21T00:24:08.130Z,1013.51
2023-05-21T00:24:40.294Z,1013.51
2023-05-21T00:25:10.647Z,1013.41
2023-05-21T00:25:41.868Z,1013.41
2023-05-21T00:26:13.086Z,1013.71
2023-05-21T00:26:44.153Z,1013.71
2023-05-21T00:27:14.145Z,1013.61
2023-05-21T00:27:45.881Z,1013.61
2023-05-21T00:28:16.169Z,1013.61
2023-05-21T00:28:47.828Z,1013.61
2023-05-21T00:29:18.110Z,1013.61
2023-05-21T00:29:49.832Z,1013.61
2023-05-21T00:30:21.093Z,1013.61
2023-05-21T00:30:51.858Z,1013.61
2023-05-21T00:31:23.410Z,1013.51
2023-05-21T00:31:53.840Z,1013.51
2023-05-21T00:32:24.144Z,1013.51
2023-05-21T00:32:55.932Z,1013.51
2023-05-21T00:33:26.152Z,1013.41
2023-05-21T00:33:57.835Z,1013.41
2023-05-21T00:34:28.112Z,1013.41
2023-05-21T00:34:59.852Z,1013.41
2023-05-21T00:35:30.818Z,1013.41
2023-05-21T00:36:01.848Z,1013.41
2023-05-21T00:36:33.087Z,1013.51
2023-05-21T00:37:04.212Z,1013.51
2023-05-21T00:37:34.176Z,1013.51
2023-05-21T00:38:06.239Z,1013.61
2023-05-21T00:38:36.086Z,1013.61
2023-05-21T00:39:07.863Z,1013.51
2023-05-21T00:39:38.123Z,1013.51
2023-05-21T00:40:10.356Z,1013.51
2023-05-21T00:40:43.372Z,1013.51
2023-05-21T00:41:11.876Z,1013.41
2023-05-21T00:41:43.671Z,1013.41
2023-05-21T00:42:13.791Z,1013.34
2023-05-21T00:42:44.167Z,1013.34
2023-05-21T00:43:15.813Z,1013.61
2023-05-21T00:43:46.169Z,1013.61
2023-05-21T00:44:17.839Z,1013.61
2023-05-21T00:44:48.887Z,1013.61
2023-05-21T00:45:20.736Z,1013.51
2023-05-21T00:45:50.277Z,1013.51
2023-05-21T00:46:21.898Z,1013.41
2023-05-21T00:46:53.189Z,1013.41
2023-05-21T00:47:24.798Z,1013.41
2023-05-21T00:47:54.137Z,1013.41
2023-05-21T00:48:25.829Z,1013.51
2023-05-21T00:48:56.332Z,1013.51
2023-05-21T00:49:27.801Z,1013.34
2023-05-21T00:49:58.146Z,1013.34
2023-05-21T00:50:30.350Z,1013.41
2023-05-21T00:51:00.142Z,1013.41
2023-05-21T00:51:32.418Z,1013.41
2023-05-21T00:52:10.927Z,1013.41
2023-05-21T00:52:34.880Z,1013.41
2023-05-21T00:53:04.100Z,1013.51
2023-05-21T00:53:35.777Z,1013.51
2023-05-21T00:54:06.076Z,1013.51
2023-05-21T00:54:37.779Z,1013.51
2023-05-21T00:55:08.641Z,1013.61
2023-05-21T00:55:39.830Z,1013.61
2023-05-21T00:56:10.072Z,1013.41
2023-05-21T00:56:41.854Z,1013.41
2023-05-21T00:57:13.207Z,1013.41
2023-05-21T00:57:43.356Z,1013.41
2023-05-21T00:58:15.324Z,1013.41
2023-05-21T00:58:45.103Z,1013.41
2023-05-21T00:59:16.799Z,1013.34
2023-05-21T00:59:47.168Z,1013.34
2023-05-21T01:00:20.042Z,1013.51
2023-05-21T01:00:53.999Z,1013.51
2023-05-21T01:01:21.041Z,1013.41
2023-05-21T01:01:51.179Z,1013.41
2023-05-21T01:02:23.909Z,1013.34
2023-05-21T01:02:53.146Z,1013.34
2023-05-21T01:03:24.963Z,1013.24
2023-05-21T01:03:55.087Z,1013.24
2023-05-21T01:04:26.889Z,1013.14
2023-05-21T01:04:58.380Z,1013.14
2023-05-21T01:05:29.297Z,1013.34
2023-05-21T01:05:59.100Z,1013.34
2023-05-21T01:06:30.941Z,1013.34
2023-05-21T01:07:01.597Z,1013.34
2023-05-21T01:07:34.531Z,1013.41
2023-05-21T01:08:03.727Z,1013.34
2023-05-21T01:08:34.302Z,1013.34
2023-05-21T01:09:05.795Z,1013.34
2023-05-21T01:09:36.143Z,1013.34
2023-05-21T01:10:08.382Z,1013.34
2023-05-21T01:10:38.096Z,1013.34
2023-05-21T01:11:09.941Z,1013.34
2023-05-21T01:11:40.894Z,1013.34
2023-05-21T01:12:11.879Z,1013.41
2023-05-21T01:12:43.174Z,1013.41
2023-05-21T01:13:13.875Z,1013.51
2023-05-21T01:13:44.103Z,1013.51
2023-05-21T01:14:15.870Z,1013.24
2023-05-21T01:14:46.108Z,1013.24
2023-05-21T01:15:18.849Z,1013.24
2023-05-21T01:15:48.889Z,1013.24
2023-05-21T01:16:19.807Z,1013.14
2023-05-21T01:16:50.283Z,1013.14
2023-05-21T01:17:21.920Z,1013.34
2023-05-21T01:17:53.185Z,1013.34
2023-05-21T01:18:24.472Z,1013.24
2023-05-21T01:18:54.643Z,1013.24
2023-05-21T01:19:26.075Z,1013.24
2023-05-21T01:19:56.080Z,1013.24
2023-05-21T01:20:40.593Z,1013.41
2023-05-21T01:20:58.116Z,1013.41
2023-05-21T01:21:29.884Z,1013.24
2023-05-21T01:22:00.188Z,1013.24
2023-05-21T01:22:31.778Z,1013.24
2023-05-21T01:23:10.037Z,1013.24
2023-05-21T01:23:33.810Z,1013.24
2023-05-21T01:24:04.130Z,1013.24
2023-05-21T01:24:38.294Z,1013.24
2023-05-21T01:25:07.691Z,1013.24
2023-05-21T01:25:37.750Z,1013.24
2023-05-21T01:26:08.825Z,1013.34
2023-05-21T01:26:39.259Z,1013.34
2023-05-21T01:27:10.817Z,1013.41
2023-05-21T01:27:41.077Z,1013.41
2023-05-21T01:28:13.792Z,1013.34
2023-05-21T01:28:43.423Z,1013.34
2023-05-21T01:29:14.845Z,1013.24
2023-05-21T01:29:45.078Z,1013.24
2023-05-21T01:30:19.282Z,1013.24
2023-05-21T01:30:47.217Z,1013.24
2023-05-21T01:31:18.770Z,1013.34
2023-05-21T01:31:49.824Z,1013.34
2023-05-21T01:32:20.848Z,1013.24
2023-05-21T01:32:51.198Z,1013.24
2023-05-21T01:33:23.937Z,1013.51
2023-05-21T01:33:53.407Z,1013.51
2023-05-21T01:34:24.821Z,1013.34
2023-05-21T01:34:55.071Z,1013.34
2023-05-21T01:35:27.412Z,1013.34
2023-05-21T01:35:57.545Z,1013.34
2023-05-21T01:36:28.839Z,1013.41
2023-05-21T01:36:59.148Z,1013.41
2023-05-21T01:37:30.772Z,1013.41
2023-05-21T01:38:01.516Z,1013.41
2023-05-21T01:38:33.804Z,1013.51
2023-05-21T01:39:03.516Z,1013.34
2023-05-21T01:39:35.306Z,1013.34
2023-05-21T01:40:05.861Z,1013.34
2023-05-21T01:40:43.821Z,1013.34
2023-05-21T01:41:07.518Z,1013.41
2023-05-21T01:41:38.803Z,1013.41
2023-05-21T01:42:09.156Z,1013.51
2023-05-21T01:42:40.772Z,1013.51
2023-05-21T01:43:11.119Z,1013.41
2023-05-21T01:43:43.817Z,1013.41
2023-05-21T01:44:13.073Z,1013.41
2023-05-21T01:44:44.763Z,1013.41
2023-05-21T01:45:16.738Z,1013.34
2023-05-21T01:45:46.853Z,1013.34
2023-05-21T01:46:17.153Z,1013.34
2023-05-21T01:46:48.925Z,1013.34
2023-05-21T01:47:19.197Z,1013.41
2023-05-21T01:47:50.816Z,1013.41
2023-05-21T01:48:21.099Z,1013.34
2023-05-21T01:48:53.764Z,1013.34
2023-05-21T01:49:23.575Z,1013.41
2023-05-21T01:49:54.813Z,1013.41
2023-05-21T01:50:25.743Z,1013.41
2023-05-21T01:50:56.809Z,1013.41
2023-05-21T01:51:27.101Z,1013.34
2023-05-21T01:51:59.640Z,1013.34
2023-05-21T01:52:29.115Z,1013.41
2023-05-21T01:53:01.323Z,1013.41
2023-05-21T01:53:31.190Z,1013.24
2023-05-21T01:54:09.462Z,1013.24
2023-05-21T01:54:33.869Z,1013.24
2023-05-21T01:55:05.170Z,1013.04
2023-05-21T01:55:36.183Z,1013.04
2023-05-21T01:56:06.573Z,1013.34
2023-05-21T01:56:37.872Z,1013.34
2023-05-21T01:57:08.108Z,1013.41
2023-05-21T01:57:39.116Z,1013.41
2023-05-21T01:58:10.235Z,1013.34
2023-05-21T01:58:42.535Z,1013.34
2023-05-21T01:59:13.073Z,1013.41
2023-05-21T01:59:44.081Z,1013.41
2023-05-21T02:00:15.920Z,1013.24
2023-05-21T02:01:00.336Z,1013.24
2023-05-21T02:01:18.452Z,1013.14
2023-05-21T02:01:47.871Z,1013.14
2023-05-21T02:02:18.221Z,1013.34
2023-05-21T02:02:50.325Z,1013.34
2023-05-21T02:03:20.202Z,1013.04
2023-05-21T02:03:52.709Z,1013.04
2023-05-21T02:04:23.085Z,1013.34
2023-05-21T02:04:53.859Z,1013.34
2023-05-21T02:05:26.058Z,1013.24
2023-05-21T02:05:55.914Z,1013.24
2023-05-21T02:06:26.302Z,1013.24
2023-05-21T02:06:57.806Z,1013.24
2023-05-21T02:07:28.478Z,1013.24
2023-05-21T02:08:00.293Z,1013.24
2023-05-21T02:08:30.128Z,1013.34
2023-05-21T02:09:01.984Z,1013.34
2023-05-21T02:09:33.113Z,1013.24
2023-05-21T02:10:04.795Z,1013.34
2023-05-21T02:10:34.166Z,1013.34
2023-05-21T02:11:05.921Z,1013.14
2023-05-21T02:11:36.263Z,1013.14
2023-05-21T02:12:08.530Z,1013.24
2023-05-21T02:12:38.114Z,1013.24
2023-05-21T02:13:09.823Z,1013.34
2023-05-21T02:13:40.110Z,1013.34
2023-05-21T02:14:11.854Z,1013.24
2023-05-21T02:14:43.130Z,1013.24
2023-05-21T02:15:15.237Z,1013.41
2023-05-21T02:15:44.193Z,1013.41
2023-05-21T02:16:15.919Z,1013.61
2023-05-21T02:16:46.169Z,1013.61
2023-05-21T02:17:18.052Z,1013.24
2023-05-21T02:17:48.150Z,1013.24
2023-05-21T02:18:19.809Z,1013.24
2023-05-21T02:18:50.155Z,1013.24
2023-05-21T02:19:21.872Z,1013.34
2023-05-21T02:19:53.119Z,1013.34
2023-05-21T02:20:24.820Z,1013.24
2023-05-21T02:20:54.182Z,1013.24
2023-05-21T02:21:25.852Z,1013.41
2023-05-21T02:21:56.101Z,1013.41
2023-05-21T02:22:27.838Z,1013.14
2023-05-21T02:22:58.579Z,1013.14
2023-05-21T02:23:30.041Z,1013.34
2023-05-21T02:24:00.195Z,1013.34
2023-05-21T02:24:31.823Z,1013.14
2023-05-21T02:25:10.586Z,1013.14
2023-05-21T02:25:34.746Z,1013.41
2023-05-21T02:26:04.207Z,1013.34
2023-05-21T02:26:35.755Z,1013.34
2023-05-21T02:27:06.111Z,1013.14
2023-05-21T02:27:37.866Z,1013.14
2023-05-21T02:28:08.090Z,1013.41
2023-05-21T02:28:39.809Z,1013.41
2023-05-21T02:29:10.112Z,1013.41
2023-05-21T02:29:41.846Z,1013.41
2023-05-21T02:30:14.532Z,1013.24
2023-05-21T02:30:44.926Z,1013.24
2023-05-21T02:31:14.373Z,1013.14
2023-05-21T02:31:45.846Z,1013.14
2023-05-21T02:32:16.159Z,1013.14
2023-05-21T02:32:47.831Z,1013.14
2023-05-21T02:33:18.160Z,1013.34
2023-05-21T02:33:49.825Z,1013.34
2023-05-21T02:34:20.193Z,1013.14
2023-05-21T02:34:51.809Z,1013.14
2023-05-21T02:35:23.606Z,1013.14
2023-05-21T02:35:53.856Z,1013.14
2023-05-21T02:36:24.691Z,1013.24
2023-05-21T02:36:56.201Z,1013.24
2023-05-21T02:37:26.140Z,1013.14
2023-05-21T02:37:57.812Z,1013.14
2023-05-21T02:38:28.093Z,1013.14
2023-05-21T02:39:00.520Z,1013.14
2023-05-21T02:39:30.141Z,1013.04
2023-05-21T02:40:02.986Z,1013.04
2023-05-21T02:40:42.263Z,1013.24
2023-05-21T02:41:04.262Z,1012.83
2023-05-21T02:41:34.078Z,1012.83
2023-05-21T02:42:05.811Z,1013.04
2023-05-21T02:42:36.111Z,1013.04
2023-05-21T02:43:08.013Z,1013.24
2023-05-21T02:43:38.179Z,1013.24
2023-05-21T02:44:09.775Z,1013.24
2023-05-21T02:44:40.069Z,1013.24
2023-05-21T02:45:12.796Z,1013.14
2023-05-21T02:45:44.076Z,1013.14
2023-05-21T02:46:13.988Z,1012.83
2023-05-21T02:46:44.108Z,1012.83
2023-05-21T02:47:15.795Z,1012.93
2023-05-21T02:47:46.211Z,1012.93
2023-05-21T02:48:17.848Z,1012.83
2023-05-21T02:48:48.100Z,1012.83
2023-05-21T02:49:19.777Z,1012.93
2023-05-21T02:49:50.600Z,1012.93
2023-05-21T02:50:22.467Z,1012.93
2023-05-21T02:50:53.077Z,1012.93
2023-05-21T02:51:24.109Z,1012.93
2023-05-21T02:51:54.135Z,1012.93
2023-05-21T02:52:26.669Z,1012.83
2023-05-21T02:52:56.053Z,1012.83
2023-05-21T02:53:27.997Z,1012.93
2023-05-21T02:53:58.083Z,1012.93
2023-05-21T02:54:29.786Z,1012.93
2023-05-21T02:55:00.127Z,1012.93
2023-05-21T02:55:32.281Z,1013.14
2023-05-21T02:56:10.552Z,1013.14
2023-05-21T02:56:33.839Z,1012.93
2023-05-21T02:57:04.175Z,1012.83
2023-05-21T02:57:35.103Z,1012.83
2023-05-21T02:58:06.094Z,1012.83
2023-05-21T02:58:37.811Z,1012.83
2023-05-21T02:59:08.101Z,1012.83
2023-05-21T02:59:39.890Z,1012.83
2023-05-21T03:00:11.612Z,1013.14
2023-05-21T03:00:49.590Z,1013.14
2023-05-21T03:01:13.162Z,1012.83
2023-05-21T03:01:44.466Z,1012.83
2023-05-21T03:02:14.170Z,1013.14
2023-05-21T03:02:45.904Z,1013.14
2023-05-21T03:03:16.776Z,1012.93
2023-05-21T03:03:47.846Z,1012.93
2023-05-21T03:04:18.215Z,1012.73
2023-05-21T03:04:50.078Z,1012.73
2023-05-21T03:05:20.865Z,1012.93
2023-05-21T03:05:52.544Z,1012.93
2023-05-21T03:06:23.108Z,1013.04
2023-05-21T03:06:53.865Z,1013.04
2023-05-21T03:07:24.392Z,1012.83
2023-05-21T03:07:56.028Z,1012.83
2023-05-21T03:08:26.293Z,1012.83
2023-05-21T03:08:58.262Z,1012.83
2023-05-21T03:09:28.188Z,1012.93
2023-05-21T03:09:59.999Z,1012.93
2023-05-21T03:10:30.621Z,1012.73
2023-05-21T03:11:02.140Z,1012.73
2023-05-21T03:11:33.185Z,1013.04
2023-05-21T03:12:04.392Z,1012.93
2023-05-21T03:12:34.186Z,1012.93
2023-05-21T03:13:07.448Z,1012.83
2023-05-21T03:13:36.299Z,1012.83
2023-05-21T03:14:07.767Z,1013.04
2023-05-21T03:14:38.137Z,1013.04
2023-05-21T03:15:12.077Z,1012.73
2023-05-21T03:15:40.253Z,1012.73
2023-05-21T03:16:12.097Z,1012.83
2023-05-21T03:16:43.130Z,1012.83
2023-05-21T03:17:14.609Z,1012.83
2023-05-21T03:17:44.437Z,1012.83
2023-05-21T03:18:15.907Z,1012.93
2023-05-21T03:18:46.365Z,1012.93
2023-05-21T03:19:18.752Z,1012.83
2023-05-21T03:19:48.358Z,1012.83
2023-05-21T03:20:20.897Z,1012.93
2023-05-21T03:20:51.045Z,1012.93
2023-05-21T03:21:22.163Z,1012.63
2023-05-21T03:21:53.380Z,1012.63
2023-05-21T03:22:24.372Z,1012.93
2023-05-21T03:22:54.359Z,1012.93
2023-05-21T03:23:26.101Z,1012.73
2023-05-21T03:23:56.328Z,1012.73
2023-05-21T03:24:28.013Z,1012.83
2023-05-21T03:24:58.217Z,1012.83
2023-05-21T03:25:30.610Z,1012.83
2023-05-21T03:26:00.350Z,1012.83
2023-05-21T03:26:32.457Z,1012.93
2023-05-21T03:27:10.755Z,1012.93
2023-05-21T03:27:34.459Z,1012.63
2023-05-21T03:28:04.371Z,1012.73
2023-05-21T03:28:37.744Z,1012.73
2023-05-21T03:29:06.294Z,1012.83
2023-05-21T03:29:38.056Z,1012.83
2023-05-21T03:30:10.581Z,1012.83
2023-05-21T03:30:40.137Z,1012.83
2023-05-21T03:31:10.756Z,1012.73
2023-05-21T03:31:42.003Z,1012.73
2023-05-21T03:32:13.369Z,1012.73
2023-05-21T03:32:45.053Z,1012.73
2023-05-21T03:33:14.306Z,1012.93
2023-05-21T03:33:45.996Z,1012.93
2023-05-21T03:34:16.699Z,1012.43
2023-05-21T03:34:47.941Z,1012.43
2023-05-21T03:35:18.777Z,1012.53
2023-05-21T03:35:49.993Z,1012.53
2023-05-21T03:36:20.328Z,1013.04
2023-05-21T03:36:52.023Z,1013.04
2023-05-21T03:37:23.279Z,1012.83
2023-05-21T03:37:53.960Z,1012.83
2023-05-21T03:38:24.252Z,1013.04
2023-05-21T03:38:56.086Z,1013.04
2023-05-21T03:39:26.261Z,1012.73
2023-05-21T03:39:57.937Z,1012.73
2023-05-21T03:40:41.952Z,1012.33
2023-05-21T03:41:00.166Z,1012.33
2023-05-21T03:41:30.288Z,1012.93
2023-05-21T03:42:02.127Z,1012.93
2023-05-21T03:42:33.195Z,1012.73
2023-05-21T03:43:04.519Z,1012.83
2023-05-21T03:43:35.056Z,1012.83
2023-05-21T03:44:05.970Z,1012.63
2023-05-21T03:44:36.214Z,1012.63
2023-05-21T03:45:09.208Z,1012.93
2023-05-21T03:45:38.964Z,1012.93
2023-05-21T03:46:10.653Z,1013.04
2023-05-21T03:46:40.399Z,1013.04
2023-05-21T03:47:11.994Z,1012.93
2023-05-21T03:47:43.270Z,1012.93
2023-05-21T03:48:13.979Z,1012.93
2023-05-21T03:48:44.214Z,1012.93
2023-05-21T03:49:15.962Z,1012.73
2023-05-21T03:49:46.325Z,1012.73
2023-05-21T03:50:18.824Z,1012.53
2023-05-21T03:50:48.233Z,1012.53
2023-05-21T03:51:19.912Z,1012.93
2023-05-21T03:51:50.193Z,1012.93
2023-05-21T03:52:21.891Z,1012.73
2023-05-21T03:52:54.062Z,1012.73
2023-05-21T03:53:24.259Z,1012.93
2023-05-21T03:53:54.251Z,1012.93
2023-05-21T03:54:25.939Z,1012.73
2023-05-21T03:54:56.207Z,1012.73
2023-05-21T03:55:29.064Z,1012.83
2023-05-21T03:55:58.373Z,1012.83
2023-05-21T03:56:30.117Z,1013.14
2023-05-21T03:57:01.195Z,1013.14
2023-05-21T03:57:31.409Z,1012.83
2023-05-21T03:58:09.878Z,1012.83
2023-05-21T03:58:34.525Z,1012.83
2023-05-21T03:59:04.264Z,1012.93
2023-05-21T03:59:36.516Z,1012.93
2023-05-21T04:00:07.782Z,1012.83
2023-05-21T04:00:38.735Z,1012.83
2023-05-21T04:01:08.439Z,1012.83
2023-05-21T04:01:39.931Z,1012.83
2023-05-21T04:02:10.377Z,1012.93
2023-05-21T04:02:42.020Z,1012.93
2023-05-21T04:03:13.384Z,1012.93
2023-05-21T04:03:44.503Z,1012.93
2023-05-21T04:04:14.400Z,1012.73
2023-05-21T04:04:46.055Z,1012.73
2023-05-21T04:05:16.818Z,1013.04
2023-05-21T04:05:48.005Z,1013.04
2023-05-21T04:06:18.271Z,1012.93
2023-05-21T04:06:50.041Z,1012.93
2023-05-21T04:07:20.492Z,1012.83
2023-05-21T04:07:51.932Z,1012.83
2023-05-21T04:08:23.348Z,1012.83
2023-05-21T04:08:53.939Z,1012.83
2023-05-21T04:09:24.273Z,1012.93
2023-05-21T04:09:55.921Z,1012.93
2023-05-21T04:10:27.430Z,1012.93
2023-05-21T04:10:58.108Z,1012.93
2023-05-21T04:11:28.246Z,1013.04
2023-05-21T04:11:59.939Z,1013.04
2023-05-21T04:12:30.246Z,1012.93
2023-05-21T04:13:03.063Z,1012.93
2023-05-21T04:13:33.276Z,1013.04
2023-05-21T04:14:04.425Z,1012.73
2023-05-21T04:14:34.237Z,1012.73
2023-05-21T04:15:07.764Z,1012.83
2023-05-21T04:15:36.611Z,1012.83
2023-05-21T04:16:07.983Z,1013.04
2023-05-21T04:16:38.290Z,1013.04
2023-05-21T04:17:10.201Z,1013.04
2023-05-21T04:17:40.403Z,1013.04
2023-05-21T04:18:11.956Z,1012.83
2023-05-21T04:18:45.527Z,1012.83
2023-05-21T04:19:14.002Z,1012.83
2023-05-21T04:19:44.206Z,1012.83
2023-05-21T04:20:16.682Z,1012.93
2023-05-21T04:20:50.763Z,1012.93
2023-05-21T04:21:18.072Z,1012.83
2023-05-21T04:21:48.236Z,1012.83
2023-05-21T04:22:19.999Z,1012.93
2023-05-21T04:22:50.279Z,1012.93
2023-05-21T04:23:21.951Z,1012.93
2023-05-21T04:23:53.175Z,1012.93
2023-05-21T04:24:24.187Z,1012.83
2023-05-21T04:24:54.295Z,1012.83
2023-05-21T04:25:26.448Z,1013.04
2023-05-21T04:25:56.228Z,1013.04
2023-05-21T04:26:28.570Z,1012.93
2023-05-21T04:26:58.203Z,1012.93
2023-05-21T04:27:29.918Z,1013.04
2023-05-21T04:28:00.293Z,1013.04
2023-05-21T04:28:32.069Z,1012.83
2023-05-21T04:29:10.317Z,1012.83
2023-05-21T04:29:33.948Z,1012.93
2023-05-21T04:30:05.648Z,1012.93
2023-05-21T04:30:36.586Z,1012.93
2023-05-21T04:31:06.373Z,1012.83
2023-05-21T04:31:38.056Z,1012.83
2023-05-21T04:32:08.255Z,1012.93
2023-05-21T04:32:39.982Z,1012.93
2023-05-21T04:33:10.303Z,1012.83
2023-05-21T04:33:41.991Z,1012.83
2023-05-21T04:34:13.226Z,1012.83
2023-05-21T04:34:44.299Z,1012.83
2023-05-21T04:35:14.756Z,1013.04
2023-05-21T04:35:45.984Z,1013.04
2023-05-21T04:36:16.258Z,1012.93
2023-05-21T04:36:47.881Z,1012.93
2023-05-21T04:37:18.987Z,1013.04
2023-05-21T04:37:50.920Z,1013.04
2023-05-21T04:38:20.290Z,1012.83
2023-05-21T04:38:51.904Z,1012.83
2023-05-21T04:39:23.207Z,1012.93
2023-05-21T04:39:54.728Z,1012.93
2023-05-21T04:40:24.963Z,1013.14
2023-05-21T04:40:55.946Z,1013.14
2023-05-21T04:41:26.254Z,1013.04
2023-05-21T04:41:57.889Z,1013.04
2023-05-21T04:42:28.247Z,1012.93
2023-05-21T04:43:00.070Z,1012.93
2023-05-21T04:43:30.236Z,1013.04
2023-05-21T04:44:02.999Z,1013.04
2023-05-21T04:44:33.186Z,1013.04
2023-05-21T04:45:06.526Z,1012.93
2023-05-21T04:45:34.369Z,1012.93
2023-05-21T04:46:06.118Z,1012.73
2023-05-21T04:46:36.359Z,1012.73
2023-05-21T04:47:08.135Z,1012.93
2023-05-21T04:47:38.185Z,1012.93
2023-05-21T04:48:10.500Z,1012.83
2023-05-21T04:48:40.286Z,1012.83
2023-05-21T04:49:12.035Z,1013.04
2023-05-21T04:49:43.245Z,1013.04
2023-05-21T04:50:14.442Z,1013.04
2023-05-21T04:50:44.900Z,1013.04
2023-05-21T04:51:15.933Z,1013.04
2023-05-21T04:51:46.257Z,1013.04
2023-05-21T04:52:17.902Z,1013.14
2023-05-21T04:52:48.312Z,1013.14
2023-05-21T04:53:20.800Z,1013.04
2023-05-21T04:53:50.256Z,1013.04
2023-05-21T04:54:21.929Z,1013.14
2023-05-21T04:54:53.189Z,1013.14
2023-05-21T04:55:24.813Z,1012.83
2023-05-21T04:55:54.197Z,1012.83
2023-05-21T04:56:26.072Z,1013.14
2023-05-21T04:56:56.415Z,1013.14
2023-05-21T04:57:27.971Z,1013.14
2023-05-21T04:57:58.358Z,1013.14
2023-05-21T04:58:30.880Z,1013.04
2023-05-21T04:59:00.452Z,1013.04
2023-05-21T04:59:32.852Z,1012.93
2023-05-21T05:00:12.041Z,1012.93
2023-05-21T05:00:34.485Z,1013.24
2023-05-21T05:01:05.419Z,1012.93
2023-05-21T05:01:36.202Z,1012.93
2023-05-21T05:02:06.396Z,1013.14
2023-05-21T05:02:39.592Z,1013.14
2023-05-21T05:03:08.561Z,1013.14
2023-05-21T05:03:40.176Z,1013.14
2023-05-21T05:04:11.241Z,1013.04
2023-05-21T05:04:42.148Z,1013.04
2023-05-21T05:05:13.978Z,1012.93
2023-05-21T05:05:44.475Z,1012.93
2023-05-21T05:06:14.361Z,1013.14
2023-05-21T05:06:46.829Z,1013.14
2023-05-21T05:07:16.408Z,1012.93
2023-05-21T05:07:48.088Z,1012.93
2023-05-21T05:08:18.382Z,1013.24
2023-05-21T05:08:50.094Z,1013.24
2023-05-21T05:09:20.430Z,1013.24
2023-05-21T05:09:52.095Z,1013.24
2023-05-21T05:10:23.868Z,1013.14
2023-05-21T05:10:54.354Z,1013.14
2023-05-21T05:11:24.410Z,1013.04
2023-05-21T05:11:56.030Z,1013.04
2023-05-21T05:12:26.328Z,1013.04
2023-05-21T05:12:58.116Z,1013.04
2023-05-21T05:13:28.474Z,1013.24
2023-05-21T05:14:00.122Z,1013.24
2023-05-21T05:14:30.417Z,1013.14
2023-05-21T05:15:03.887Z,1013.14
2023-05-21T05:15:33.460Z,1012.93
2023-05-21T05:16:04.514Z,1012.93
2023-05-21T05:16:34.542Z,1012.93
2023-05-21T05:17:06.172Z,1013.04
2023-05-21T05:17:37.217Z,1013.04
2023-05-21T05:18:08.162Z,1013.04
2023-05-21T05:18:38.409Z,1013.04
2023-05-21T05:19:10.780Z,1012.93
2023-05-21T05:19:40.473Z,1012.93
2023-05-21T05:20:13.867Z,1013.04
2023-05-21T05:20:43.536Z,1013.04
2023-05-21T05:21:14.062Z,1013.14
2023-05-21T05:21:44.422Z,1013.14
2023-05-21T05:22:16.102Z,1012.93
2023-05-21T05:22:46.374Z,1012.93
2023-05-21T05:23:18.054Z,1013.04
2023-05-21T05:23:48.411Z,1013.04
2023-05-21T05:24:20.397Z,1013.04
2023-05-21T05:24:50.440Z,1013.04
2023-05-21T05:25:22.616Z,1012.83
2023-05-21T05:25:53.552Z,1012.83
2023-05-21T05:26:24.663Z,1013.04
2023-05-21T05:26:54.389Z,1013.04
2023-05-21T05:27:26.096Z,1013.04
2023-05-21T05:27:56.408Z,1013.04
2023-05-21T05:28:28.048Z,1012.93
2023-05-21T05:28:58.350Z,1012.93
2023-05-21T05:29:30.052Z,1013.14
2023-05-21T05:30:00.491Z,1013.14
2023-05-21T05:30:33.281Z,1013.14
2023-05-21T05:31:11.588Z,1013.14
2023-05-21T05:31:34.096Z,1013.34
2023-05-21T05:32:04.470Z,1013.24
2023-05-21T05:32:38.715Z,1013.24
2023-05-21T05:33:06.404Z,1013.14
2023-05-21T05:33:37.809Z,1013.14
2023-05-21T05:34:09.091Z,1013.24
2023-05-21T05:34:39.406Z,1013.24
2023-05-21T05:35:11.725Z,1013.24
2023-05-21T05:35:41.340Z,1013.24
2023-05-21T05:36:14.691Z,1013.14
2023-05-21T05:36:43.671Z,1013.14
2023-05-21T05:37:15.135Z,1013.24
2023-05-21T05:37:46.187Z,1013.24
2023-05-21T05:38:17.093Z,1013.14
2023-05-21T05:38:47.365Z,1013.14
2023-05-21T05:39:19.088Z,1013.24
2023-05-21T05:39:49.407Z,1013.24
2023-05-21T05:40:22.358Z,1013.24
2023-05-21T05:40:52.190Z,1013.24
2023-05-21T05:41:24.106Z,1013.24
2023-05-21T05:41:53.562Z,1013.24
2023-05-21T05:42:25.058Z,1013.04
2023-05-21T05:42:55.350Z,1013.04
2023-05-21T05:43:27.051Z,1013.14
2023-05-21T05:43:57.447Z,1013.14
2023-05-21T05:44:29.574Z,1013.14
2023-05-21T05:44:59.319Z,1013.14
2023-05-21T05:45:32.075Z,1013.04
2023-05-21T05:46:01.889Z,1013.04
2023-05-21T05:46:34.062Z,1013.04
2023-05-21T05:47:03.792Z,1012.93
2023-05-21T05:47:36.233Z,1012.93
2023-05-21T05:48:05.475Z,1013.04
2023-05-21T05:48:37.940Z,1013.04
2023-05-21T05:49:07.627Z,1013.14
2023-05-21T05:49:39.050Z,1013.14
2023-05-21T05:50:09.917Z,1013.14
2023-05-21T05:50:41.114Z,1013.14
2023-05-21T05:51:12.140Z,1013.14
2023-05-21T05:51:44.465Z,1013.14
2023-05-21T05:52:13.336Z,1013.14
2023-05-21T05:52:45.081Z,1013.14
2023-05-21T05:53:15.374Z,1013.14
2023-05-21T05:53:50.008Z,1013.14
2023-05-21T05:54:17.385Z,1013.14
2023-05-21T05:54:48.375Z,1013.14
2023-05-21T05:55:20.599Z,1013.24
2023-05-21T05:55:50.391Z,1013.24
2023-05-21T05:56:22.127Z,1013.14
2023-05-21T05:56:53.337Z,1013.14
2023-05-21T05:57:24.544Z,1013.04
2023-05-21T05:57:55.066Z,1013.04
2023-05-21T05:58:25.410Z,1012.83
2023-05-21T05:58:57.117Z,1012.83
2023-05-21T05:59:27.311Z,1013.14
2023-05-21T05:59:59.092Z,1013.14
2023-05-21T06:00:32.985Z,1013.04
2023-05-21T06:01:01.418Z,1013.04
2023-05-21T06:01:31.782Z,1013.14
2023-05-21T06:02:10.382Z,1013.14
2023-05-21T06:02:34.117Z,1013.14
2023-05-21T06:03:04.458Z,1013.14
2023-05-21T06:03:37.582Z,1013.14
2023-05-21T06:04:06.378Z,1013.04
2023-05-21T06:04:38.457Z,1013.04
2023-05-21T06:05:09.586Z,1013.14
2023-05-21T06:05:39.695Z,1013.14
2023-05-21T06:06:11.264Z,1013.04
2023-05-21T06:06:41.362Z,1013.04
2023-05-21T06:07:14.552Z,1013.24
2023-05-21T06:07:43.693Z,1013.24
2023-05-21T06:08:15.124Z,1013.24
2023-05-21T06:08:45.710Z,1013.24
2023-05-21T06:09:17.025Z,1013.14
2023-05-21T06:09:47.424Z,1013.14
2023-05-21T06:10:20.767Z,1013.24
2023-05-21T06:10:49.443Z,1013.24
2023-05-21T06:11:21.813Z,1013.24
2023-05-21T06:11:51.424Z,1013.24
2023-05-21T06:12:24.085Z,1013.04
2023-05-21T06:12:53.695Z,1013.04
2023-05-21T06:13:26.085Z,1013.14
2023-05-21T06:13:55.450Z,1013.14
2023-05-21T06:14:27.102Z,1013.24
2023-05-21T06:14:57.505Z,1013.24